Stevenson, Washington
Current Conditions -  °F | °C
As of 1:39 PM on Sunday 23 Nov 2014 (Local Time) from K4S2 Reporting Station
Moderate Rain Moderate Rain  
Wind Chill: 48°   Ceiling: 5000
Heat Index: 48°   Visibility: 10mi
Dew Point: 45°   Wind: 3mph
Humidity: 87%   Direction: 280°W
Pressure: 30.2"   Gusts: NA
Location:  45.7°N, 121.88°W
Report Text: K4S2 232139Z AUTO 28003KT 10SM RA SCT040 SCT046 OVC050 09/07 A3020 RMK AO2 P0002 SLP241 T00900070
Loading
Personal Weather Stations






























Interactive Weather Map New forecast layout! Learn more

10-Day Weather Forecast

Advertisements
Track Severe Weather on mobile